Terminal Aerodrome Forecast
Issued by NWS Upton, NY

Home | Current Version | Previous Version | Text Only | Print | Product List | Glossary On
Versions: 1 2 3 4 5 6 7 8 9 10 11 12 13 14 15 16 17 18 19 20 21 22 23 24 25
000
FTUS41 KOKX 292000 AAA
TAFJFK
TAF AMD
KJFK 292036Z 2920/3024 16006KT P6SM BKN100 BKN150
     FM300000 18009KT P6SM BKN070
     FM300200 20010KT P6SM BKN040
     FM300400 20011KT 4SM -SN SCT020 OVC035
     FM300600 21012KT 2SM -SN OVC015
     FM301200 25010KT 4SM -SN OVC015
     FM301300 28011KT 4SM -SN OVC015
     FM301500 30015G23KT P6SM VCSH SCT015 BKN030
     FM301800 31017G26KT P6SM BKN035 BKN090
     FM302200 31022G32KT P6SM SCT030 SCT250=

USA.gov is the U.S. government's official web portal to all federal, state and local government web resources and services.